sensor_id;sensor_type;location;lat;lon;timestamp;P1;durP1;ratioP1;P2;durP2;ratioP2
4873;SDS011;2451;49.970;9.068;2023-12-20T00:01:18;5.63;;;2.20;;
4873;SDS011;2451;49.970;9.068;2023-12-20T00:03:43;5.35;;;2.55;;
4873;SDS011;2451;49.970;9.068;2023-12-20T00:06:09;3.35;;;2.17;;
4873;SDS011;2451;49.970;9.068;2023-12-20T00:08:35;4.32;;;2.35;;
4873;SDS011;2451;49.970;9.068;2023-12-20T00:11:01;5.45;;;2.53;;
4873;SDS011;2451;49.970;9.068;2023-12-20T00:13:26;4.38;;;2.53;;
4873;SDS011;2451;49.970;9.068;2023-12-20T00:15:52;4.93;;;2.45;;
4873;SDS011;2451;49.970;9.068;2023-12-20T00:18:18;3.70;;;2.30;;
4873;SDS011;2451;49.970;9.068;2023-12-20T00:20:43;3.85;;;2.40;;
4873;SDS011;2451;49.970;9.068;2023-12-20T00:23:09;3.28;;;2.05;;
4873;SDS011;2451;49.970;9.068;2023-12-20T00:25:35;4.80;;;2.50;;
4873;SDS011;2451;49.970;9.068;2023-12-20T00:28:00;4.30;;;2.58;;
4873;SDS011;2451;49.970;9.068;2023-12-20T00:30:27;4.47;;;2.03;;
4873;SDS011;2451;49.970;9.068;2023-12-20T00:32:53;3.63;;;2.10;;
4873;SDS011;2451;49.970;9.068;2023-12-20T00:35:18;4.10;;;2.15;;
4873;SDS011;2451;49.970;9.068;2023-12-20T00:37:44;4.80;;;2.20;;
4873;SDS011;2451;49.970;9.068;2023-12-20T00:40:10;5.78;;;2.30;;
4873;SDS011;2451;49.970;9.068;2023-12-20T00:42:36;3.92;;;2.42;;
4873;SDS011;2451;49.970;9.068;2023-12-20T00:45:02;4.20;;;2.40;;
4873;SDS011;2451;49.970;9.068;2023-12-20T00:47:29;3.75;;;2.20;;
4873;SDS011;2451;49.970;9.068;2023-12-20T00:49:55;3.88;;;2.33;;
4873;SDS011;2451;49.970;9.068;2023-12-20T00:52:21;4.60;;;2.30;;
4873;SDS011;2451;49.970;9.068;2023-12-20T00:54:47;3.72;;;2.22;;
4873;SDS011;2451;49.970;9.068;2023-12-20T00:57:13;4.15;;;2.03;;
4873;SDS011;2451;49.970;9.068;2023-12-20T00:59:39;3.83;;;2.13;;
4873;SDS011;2451;49.970;9.068;2023-12-20T01:02:04;3.88;;;2.30;;
4873;SDS011;2451;49.970;9.068;2023-12-20T01:04:30;4.15;;;2.50;;
4873;SDS011;2451;49.970;9.068;2023-12-20T01:06:55;4.13;;;2.22;;
4873;SDS011;2451;49.970;9.068;2023-12-20T01:09:21;5.07;;;2.45;;
4873;SDS011;2451;49.970;9.068;2023-12-20T01:11:51;3.80;;;2.40;;
4873;SDS011;2451;49.970;9.068;2023-12-20T01:14:17;3.70;;;2.22;;
4873;SDS011;2451;49.970;9.068;2023-12-20T01:16:42;3.95;;;2.60;;
4873;SDS011;2451;49.970;9.068;2023-12-20T01:19:08;3.67;;;2.20;;
4873;SDS011;2451;49.970;9.068;2023-12-20T01:21:33;4.22;;;2.13;;
4873;SDS011;2451;49.970;9.068;2023-12-20T01:23:59;4.75;;;2.85;;
4873;SDS011;2451;49.970;9.068;2023-12-20T01:26:24;3.05;;;1.98;;
4873;SDS011;2451;49.970;9.068;2023-12-20T01:28:50;2.90;;;2.10;;
4873;SDS011;2451;49.970;9.068;2023-12-20T01:31:15;5.00;;;2.80;;
4873;SDS011;2451;49.970;9.068;2023-12-20T01:33:41;3.88;;;2.35;;
4873;SDS011;2451;49.970;9.068;2023-12-20T01:36:06;3.60;;;2.30;;
4873;SDS011;2451;49.970;9.068;2023-12-20T01:38:32;3.65;;;2.22;;
4873;SDS011;2451;49.970;9.068;2023-12-20T01:40:58;4.40;;;2.50;;
4873;SDS011;2451;49.970;9.068;2023-12-20T01:43:24;4.22;;;2.45;;
4873;SDS011;2451;49.970;9.068;2023-12-20T01:45:49;3.30;;;2.20;;
4873;SDS011;2451;49.970;9.068;2023-12-20T01:48:16;3.85;;;2.60;;
4873;SDS011;2451;49.970;9.068;2023-12-20T01:50:42;3.83;;;2.10;;
4873;SDS011;2451;49.970;9.068;2023-12-20T01:53:09;5.03;;;2.70;;
4873;SDS011;2451;49.970;9.068;2023-12-20T01:55:37;3.22;;;2.05;;
4873;SDS011;2451;49.970;9.068;2023-12-20T01:58:04;3.97;;;2.40;;
4873;SDS011;2451;49.970;9.068;2023-12-20T02:00:30;4.00;;;2.50;;
4873;SDS011;2451;49.970;9.068;2023-12-20T02:02:56;3.47;;;2.20;;
4873;SDS011;2451;49.970;9.068;2023-12-20T02:05:25;3.90;;;2.20;;
4873;SDS011;2451;49.970;9.068;2023-12-20T02:07:52;4.75;;;2.50;;
4873;SDS011;2451;49.970;9.068;2023-12-20T02:10:18;4.35;;;2.97;;
4873;SDS011;2451;49.970;9.068;2023-12-20T02:12:44;3.60;;;2.10;;
4873;SDS011;2451;49.970;9.068;2023-12-20T02:15:09;3.38;;;1.83;;
4873;SDS011;2451;49.970;9.068;2023-12-20T02:17:35;3.92;;;2.40;;
4873;SDS011;2451;49.970;9.068;2023-12-20T02:20:02;4.60;;;2.30;;
4873;SDS011;2451;49.970;9.068;2023-12-20T02:22:28;3.65;;;2.22;;
4873;SDS011;2451;49.970;9.068;2023-12-20T02:24:53;4.25;;;2.17;;
4873;SDS011;2451;49.970;9.068;2023-12-20T02:27:19;2.78;;;1.83;;
4873;SDS011;2451;49.970;9.068;2023-12-20T02:29:46;4.50;;;2.28;;
4873;SDS011;2451;49.970;9.068;2023-12-20T02:32:13;4.20;;;2.72;;
4873;SDS011;2451;49.970;9.068;2023-12-20T02:34:38;3.83;;;2.20;;
4873;SDS011;2451;49.970;9.068;2023-12-20T02:37:04;3.65;;;2.08;;
4873;SDS011;2451;49.970;9.068;2023-12-20T02:39:29;3.70;;;2.13;;
4873;SDS011;2451;49.970;9.068;2023-12-20T02:41:55;2.72;;;1.70;;
4873;SDS011;2451;49.970;9.068;2023-12-20T02:44:20;3.15;;;1.85;;
4873;SDS011;2451;49.970;9.068;2023-12-20T02:46:46;3.78;;;2.22;;
4873;SDS011;2451;49.970;9.068;2023-12-20T02:49:11;2.90;;;1.92;;
4873;SDS011;2451;49.970;9.068;2023-12-20T02:51:37;3.83;;;2.40;;
4873;SDS011;2451;49.970;9.068;2023-12-20T02:54:05;4.22;;;2.22;;
4873;SDS011;2451;49.970;9.068;2023-12-20T02:56:31;2.72;;;1.95;;
4873;SDS011;2451;49.970;9.068;2023-12-20T02:58:57;3.67;;;2.17;;
4873;SDS011;2451;49.970;9.068;2023-12-20T03:01:23;3.47;;;2.10;;
4873;SDS011;2451;49.970;9.068;2023-12-20T03:03:49;2.97;;;1.85;;
4873;SDS011;2451;49.970;9.068;2023-12-20T03:06:18;3.85;;;2.08;;
4873;SDS011;2451;49.970;9.068;2023-12-20T03:08:44;2.72;;;1.70;;
4873;SDS011;2451;49.970;9.068;2023-12-20T03:11:10;3.15;;;2.00;;
4873;SDS011;2451;49.970;9.068;2023-12-20T03:13:35;3.22;;;1.98;;
4873;SDS011;2451;49.970;9.068;2023-12-20T03:16:01;2.80;;;1.88;;
4873;SDS011;2451;49.970;9.068;2023-12-20T03:18:32;4.00;;;1.77;;
4873;SDS011;2451;49.970;9.068;2023-12-20T03:20:58;3.22;;;1.95;;
4873;SDS011;2451;49.970;9.068;2023-12-20T03:23:23;3.53;;;2.03;;
4873;SDS011;2451;49.970;9.068;2023-12-20T03:25:49;2.88;;;1.70;;
4873;SDS011;2451;49.970;9.068;2023-12-20T03:28:14;2.92;;;1.80;;
4873;SDS011;2451;49.970;9.068;2023-12-20T03:30:40;2.67;;;1.70;;
4873;SDS011;2451;49.970;9.068;2023-12-20T03:33:06;2.70;;;1.73;;
4873;SDS011;2451;49.970;9.068;2023-12-20T03:35:32;2.70;;;1.70;;
4873;SDS011;2451;49.970;9.068;2023-12-20T03:37:58;2.67;;;1.80;;
4873;SDS011;2451;49.970;9.068;2023-12-20T03:40:25;2.42;;;1.65;;
4873;SDS011;2451;49.970;9.068;2023-12-20T03:42:50;2.97;;;1.80;;
4873;SDS011;2451;49.970;9.068;2023-12-20T03:45:16;2.47;;;1.80;;
4873;SDS011;2451;49.970;9.068;2023-12-20T03:47:42;3.42;;;1.75;;
4873;SDS011;2451;49.970;9.068;2023-12-20T03:50:07;3.42;;;1.90;;
4873;SDS011;2451;49.970;9.068;2023-12-20T03:52:33;2.85;;;2.10;;
4873;SDS011;2451;49.970;9.068;2023-12-20T03:54:58;2.50;;;1.77;;
4873;SDS011;2451;49.970;9.068;2023-12-20T03:57:24;2.08;;;1.67;;
4873;SDS011;2451;49.970;9.068;2023-12-20T03:59:49;2.40;;;1.55;;
4873;SDS011;2451;49.970;9.068;2023-12-20T04:02:15;2.60;;;1.80;;
4873;SDS011;2451;49.970;9.068;2023-12-20T04:04:42;3.20;;;1.92;;
4873;SDS011;2451;49.970;9.068;2023-12-20T04:07:08;2.55;;;1.70;;
4873;SDS011;2451;49.970;9.068;2023-12-20T04:09:34;4.03;;;1.90;;
4873;SDS011;2451;49.970;9.068;2023-12-20T04:11:59;2.45;;;1.65;;
4873;SDS011;2451;49.970;9.068;2023-12-20T04:14:25;3.55;;;2.20;;
4873;SDS011;2451;49.970;9.068;2023-12-20T04:16:50;5.03;;;2.35;;
4873;SDS011;2451;49.970;9.068;2023-12-20T04:19:16;3.67;;;2.00;;
4873;SDS011;2451;49.970;9.068;2023-12-20T04:21:41;2.72;;;1.83;;
4873;SDS011;2451;49.970;9.068;2023-12-20T04:24:07;2.67;;;1.70;;
4873;SDS011;2451;49.970;9.068;2023-12-20T04:26:33;3.85;;;2.13;;
4873;SDS011;2451;49.970;9.068;2023-12-20T04:28:58;3.25;;;1.90;;
4873;SDS011;2451;49.970;9.068;2023-12-20T04:31:24;3.33;;;1.83;;
4873;SDS011;2451;49.970;9.068;2023-12-20T04:33:49;3.08;;;2.00;;
4873;SDS011;2451;49.970;9.068;2023-12-20T04:36:15;2.53;;;1.80;;
4873;SDS011;2451;49.970;9.068;2023-12-20T04:38:40;3.17;;;1.92;;
4873;SDS011;2451;49.970;9.068;2023-12-20T04:41:06;2.75;;;1.90;;
4873;SDS011;2451;49.970;9.068;2023-12-20T04:43:31;3.80;;;2.00;;
4873;SDS011;2451;49.970;9.068;2023-12-20T04:45:57;3.80;;;2.25;;
4873;SDS011;2451;49.970;9.068;2023-12-20T04:48:23;4.13;;;2.30;;
4873;SDS011;2451;49.970;9.068;2023-12-20T04:50:48;4.20;;;2.33;;
4873;SDS011;2451;49.970;9.068;2023-12-20T04:53:14;4.00;;;2.10;;
4873;SDS011;2451;49.970;9.068;2023-12-20T04:55:39;4.15;;;2.40;;
4873;SDS011;2451;49.970;9.068;2023-12-20T04:58:05;4.15;;;2.30;;
4873;SDS011;2451;49.970;9.068;2023-12-20T05:00:30;2.95;;;2.03;;
4873;SDS011;2451;49.970;9.068;2023-12-20T05:02:56;3.70;;;2.00;;
4873;SDS011;2451;49.970;9.068;2023-12-20T05:05:21;3.78;;;1.95;;
4873;SDS011;2451;49.970;9.068;2023-12-20T05:07:47;4.13;;;2.63;;
4873;SDS011;2451;49.970;9.068;2023-12-20T05:10:13;3.80;;;2.10;;
4873;SDS011;2451;49.970;9.068;2023-12-20T05:12:38;4.18;;;2.30;;
4873;SDS011;2451;49.970;9.068;2023-12-20T05:15:05;3.85;;;2.03;;
4873;SDS011;2451;49.970;9.068;2023-12-20T05:17:31;4.45;;;2.40;;
4873;SDS011;2451;49.970;9.068;2023-12-20T05:19:57;3.53;;;2.15;;
4873;SDS011;2451;49.970;9.068;2023-12-20T05:22:23;3.88;;;2.00;;
4873;SDS011;2451;49.970;9.068;2023-12-20T05:24:48;3.92;;;2.10;;
4873;SDS011;2451;49.970;9.068;2023-12-20T05:27:14;5.40;;;2.70;;
4873;SDS011;2451;49.970;9.068;2023-12-20T05:29:39;3.53;;;2.28;;
4873;SDS011;2451;49.970;9.068;2023-12-20T05:32:05;3.33;;;2.25;;
4873;SDS011;2451;49.970;9.068;2023-12-20T05:34:31;5.43;;;2.72;;
4873;SDS011;2451;49.970;9.068;2023-12-20T05:36:57;4.75;;;2.70;;
4873;SDS011;2451;49.970;9.068;2023-12-20T05:39:23;6.20;;;2.90;;
4873;SDS011;2451;49.970;9.068;2023-12-20T05:41:49;4.28;;;2.10;;
4873;SDS011;2451;49.970;9.068;2023-12-20T05:44:14;4.55;;;2.47;;
4873;SDS011;2451;49.970;9.068;2023-12-20T05:46:40;3.88;;;2.40;;
4873;SDS011;2451;49.970;9.068;2023-12-20T05:49:06;4.43;;;2.38;;
4873;SDS011;2451;49.970;9.068;2023-12-20T05:51:31;4.80;;;2.58;;
4873;SDS011;2451;49.970;9.068;2023-12-20T05:53:57;4.43;;;2.55;;
4873;SDS011;2451;49.970;9.068;2023-12-20T05:56:23;3.85;;;2.42;;
4873;SDS011;2451;49.970;9.068;2023-12-20T05:58:49;3.80;;;2.50;;
4873;SDS011;2451;49.970;9.068;2023-12-20T06:01:14;6.00;;;2.80;;
4873;SDS011;2451;49.970;9.068;2023-12-20T06:03:42;4.72;;;2.40;;
4873;SDS011;2451;49.970;9.068;2023-12-20T06:06:08;4.65;;;2.53;;
4873;SDS011;2451;49.970;9.068;2023-12-20T06:08:34;4.75;;;2.50;;
4873;SDS011;2451;49.970;9.068;2023-12-20T06:10:59;4.13;;;2.50;;
4873;SDS011;2451;49.970;9.068;2023-12-20T06:13:25;3.38;;;2.15;;
4873;SDS011;2451;49.970;9.068;2023-12-20T06:15:51;4.47;;;2.20;;
4873;SDS011;2451;49.970;9.068;2023-12-20T06:18:19;4.55;;;2.30;;
4873;SDS011;2451;49.970;9.068;2023-12-20T06:20:44;3.97;;;2.40;;
4873;SDS011;2451;49.970;9.068;2023-12-20T06:23:10;6.18;;;2.35;;
4873;SDS011;2451;49.970;9.068;2023-12-20T06:25:35;4.93;;;2.30;;
4873;SDS011;2451;49.970;9.068;2023-12-20T06:28:01;3.97;;;2.13;;
4873;SDS011;2451;49.970;9.068;2023-12-20T06:30:26;5.40;;;2.30;;
4873;SDS011;2451;49.970;9.068;2023-12-20T06:32:52;4.10;;;1.95;;
4873;SDS011;2451;49.970;9.068;2023-12-20T06:35:18;8.30;;;2.38;;
4873;SDS011;2451;49.970;9.068;2023-12-20T06:37:44;4.30;;;1.92;;
4873;SDS011;2451;49.970;9.068;2023-12-20T06:40:10;3.05;;;1.70;;
4873;SDS011;2451;49.970;9.068;2023-12-20T06:42:36;3.90;;;1.95;;
4873;SDS011;2451;49.970;9.068;2023-12-20T06:45:01;3.58;;;1.48;;
4873;SDS011;2451;49.970;9.068;2023-12-20T06:47:27;4.25;;;1.73;;
4873;SDS011;2451;49.970;9.068;2023-12-20T06:49:53;3.08;;;1.70;;
4873;SDS011;2451;49.970;9.068;2023-12-20T06:52:18;4.00;;;1.90;;
4873;SDS011;2451;49.970;9.068;2023-12-20T06:54:44;3.30;;;1.95;;
4873;SDS011;2451;49.970;9.068;2023-12-20T06:57:09;2.28;;;1.48;;
4873;SDS011;2451;49.970;9.068;2023-12-20T06:59:38;3.35;;;1.85;;
4873;SDS011;2451;49.970;9.068;2023-12-20T07:02:07;4.13;;;1.83;;
4873;SDS011;2451;49.970;9.068;2023-12-20T07:04:33;3.33;;;1.80;;
4873;SDS011;2451;49.970;9.068;2023-12-20T07:07:03;2.90;;;1.73;;
4873;SDS011;2451;49.970;9.068;2023-12-20T07:09:29;3.10;;;2.00;;
4873;SDS011;2451;49.970;9.068;2023-12-20T07:11:54;3.78;;;2.03;;
4873;SDS011;2451;49.970;9.068;2023-12-20T07:14:20;4.15;;;1.77;;
4873;SDS011;2451;49.970;9.068;2023-12-20T07:16:45;5.68;;;1.90;;
4873;SDS011;2451;49.970;9.068;2023-12-20T07:19:11;2.50;;;1.80;;
4873;SDS011;2451;49.970;9.068;2023-12-20T07:21:36;3.03;;;1.83;;
4873;SDS011;2451;49.970;9.068;2023-12-20T07:24:02;3.95;;;1.75;;
4873;SDS011;2451;49.970;9.068;2023-12-20T07:26:27;4.65;;;1.90;;
4873;SDS011;2451;49.970;9.068;2023-12-20T07:28:53;3.63;;;2.15;;
4873;SDS011;2451;49.970;9.068;2023-12-20T07:31:18;3.88;;;2.47;;
4873;SDS011;2451;49.970;9.068;2023-12-20T07:33:44;4.47;;;2.05;;
4873;SDS011;2451;49.970;9.068;2023-12-20T07:36:10;4.57;;;2.55;;
4873;SDS011;2451;49.970;9.068;2023-12-20T07:38:36;4.20;;;2.25;;
4873;SDS011;2451;49.970;9.068;2023-12-20T07:41:02;4.57;;;2.38;;
4873;SDS011;2451;49.970;9.068;2023-12-20T07:43:27;4.72;;;2.65;;
4873;SDS011;2451;49.970;9.068;2023-12-20T07:45:53;5.85;;;2.70;;
4873;SDS011;2451;49.970;9.068;2023-12-20T07:48:19;6.05;;;3.10;;
4873;SDS011;2451;49.970;9.068;2023-12-20T07:50:44;7.63;;;2.92;;
4873;SDS011;2451;49.970;9.068;2023-12-20T07:53:10;7.05;;;2.90;;
4873;SDS011;2451;49.970;9.068;2023-12-20T07:55:35;5.28;;;2.72;;
4873;SDS011;2451;49.970;9.068;2023-12-20T07:58:01;4.30;;;2.60;;
4873;SDS011;2451;49.970;9.068;2023-12-20T08:00:27;4.30;;;2.33;;
4873;SDS011;2451;49.970;9.068;2023-12-20T08:02:52;4.95;;;2.53;;
4873;SDS011;2451;49.970;9.068;2023-12-20T08:05:18;7.47;;;2.67;;
4873;SDS011;2451;49.970;9.068;2023-12-20T08:07:44;7.80;;;2.70;;
4873;SDS011;2451;49.970;9.068;2023-12-20T08:10:09;4.60;;;2.08;;
4873;SDS011;2451;49.970;9.068;2023-12-20T08:12:36;4.22;;;1.95;;
4873;SDS011;2451;49.970;9.068;2023-12-20T08:15:02;4.63;;;2.05;;
4873;SDS011;2451;49.970;9.068;2023-12-20T08:17:29;7.22;;;2.13;;
4873;SDS011;2451;49.970;9.068;2023-12-20T08:19:55;5.47;;;2.13;;
4873;SDS011;2451;49.970;9.068;2023-12-20T08:22:21;6.53;;;1.85;;
4873;SDS011;2451;49.970;9.068;2023-12-20T08:24:47;4.38;;;1.92;;
4873;SDS011;2451;49.970;9.068;2023-12-20T08:27:13;5.93;;;1.95;;
4873;SDS011;2451;49.970;9.068;2023-12-20T08:29:38;6.25;;;1.92;;
4873;SDS011;2451;49.970;9.068;2023-12-20T08:32:04;6.93;;;2.30;;
4873;SDS011;2451;49.970;9.068;2023-12-20T08:34:29;4.25;;;2.03;;
4873;SDS011;2451;49.970;9.068;2023-12-20T08:36:55;2.95;;;1.80;;
4873;SDS011;2451;49.970;9.068;2023-12-20T08:39:20;5.60;;;1.60;;
4873;SDS011;2451;49.970;9.068;2023-12-20T08:41:46;5.18;;;2.05;;
4873;SDS011;2451;49.970;9.068;2023-12-20T08:44:12;3.85;;;1.70;;
4873;SDS011;2451;49.970;9.068;2023-12-20T08:46:38;6.20;;;1.70;;
4873;SDS011;2451;49.970;9.068;2023-12-20T08:49:03;4.28;;;1.50;;
4873;SDS011;2451;49.970;9.068;2023-12-20T08:51:30;4.32;;;1.70;;
4873;SDS011;2451;49.970;9.068;2023-12-20T08:53:55;4.18;;;1.92;;
4873;SDS011;2451;49.970;9.068;2023-12-20T08:56:21;4.38;;;1.52;;
4873;SDS011;2451;49.970;9.068;2023-12-20T08:58:46;5.55;;;1.73;;
4873;SDS011;2451;49.970;9.068;2023-12-20T09:01:12;9.02;;;3.40;;
4873;SDS011;2451;49.970;9.068;2023-12-20T09:03:39;9.48;;;3.60;;
4873;SDS011;2451;49.970;9.068;2023-12-20T09:06:04;4.97;;;1.75;;
4873;SDS011;2451;49.970;9.068;2023-12-20T09:08:30;4.80;;;2.05;;
4873;SDS011;2451;49.970;9.068;2023-12-20T09:10:56;4.90;;;2.20;;
4873;SDS011;2451;49.970;9.068;2023-12-20T09:13:22;5.20;;;1.58;;
4873;SDS011;2451;49.970;9.068;2023-12-20T09:15:53;4.90;;;1.83;;
4873;SDS011;2451;49.970;9.068;2023-12-20T09:18:21;3.83;;;1.95;;
4873;SDS011;2451;49.970;9.068;2023-12-20T09:20:47;7.25;;;2.03;;
4873;SDS011;2451;49.970;9.068;2023-12-20T09:23:12;8.48;;;3.10;;
4873;SDS011;2451;49.970;9.068;2023-12-20T09:25:38;6.72;;;2.72;;
4873;SDS011;2451;49.970;9.068;2023-12-20T09:28:03;6.60;;;2.97;;
4873;SDS011;2451;49.970;9.068;2023-12-20T09:30:29;6.40;;;1.80;;
4873;SDS011;2451;49.970;9.068;2023-12-20T09:32:55;5.00;;;1.77;;
4873;SDS011;2451;49.970;9.068;2023-12-20T09:35:20;4.00;;;1.90;;
4873;SDS011;2451;49.970;9.068;2023-12-20T09:37:46;2.97;;;1.45;;
4873;SDS011;2451;49.970;9.068;2023-12-20T09:40:12;4.22;;;1.30;;
4873;SDS011;2451;49.970;9.068;2023-12-20T09:45:33;4.57;;;1.90;;
4873;SDS011;2451;49.970;9.068;2023-12-20T09:47:59;3.67;;;1.50;;
4873;SDS011;2451;49.970;9.068;2023-12-20T09:50:25;8.18;;;2.28;;
4873;SDS011;2451;49.970;9.068;2023-12-20T09:52:51;8.48;;;1.98;;
4873;SDS011;2451;49.970;9.068;2023-12-20T09:55:18;2.70;;;1.40;;
4873;SDS011;2451;49.970;9.068;2023-12-20T09:57:45;2.67;;;1.35;;
4873;SDS011;2451;49.970;9.068;2023-12-20T10:00:11;3.22;;;1.45;;
4873;SDS011;2451;49.970;9.068;2023-12-20T10:02:38;4.15;;;1.42;;
4873;SDS011;2451;49.970;9.068;2023-12-20T10:05:10;7.38;;;1.80;;
4873;SDS011;2451;49.970;9.068;2023-12-20T10:07:43;3.17;;;1.50;;
4873;SDS011;2451;49.970;9.068;2023-12-20T10:10:09;4.10;;;1.70;;
4873;SDS011;2451;49.970;9.068;2023-12-20T10:12:37;7.78;;;2.10;;
4873;SDS011;2451;49.970;9.068;2023-12-20T10:15:03;5.93;;;1.80;;
4873;SDS011;2451;49.970;9.068;2023-12-20T10:17:29;4.38;;;1.60;;
4873;SDS011;2451;49.970;9.068;2023-12-20T10:19:55;6.40;;;1.80;;
4873;SDS011;2451;49.970;9.068;2023-12-20T10:22:21;4.35;;;1.70;;
4873;SDS011;2451;49.970;9.068;2023-12-20T10:24:46;6.20;;;1.80;;
4873;SDS011;2451;49.970;9.068;2023-12-20T10:27:12;6.72;;;1.90;;
4873;SDS011;2451;49.970;9.068;2023-12-20T10:29:38;6.70;;;2.00;;
4873;SDS011;2451;49.970;9.068;2023-12-20T10:34:52;4.43;;;1.58;;
4873;SDS011;2451;49.970;9.068;2023-12-20T10:37:19;6.25;;;1.70;;
4873;SDS011;2451;49.970;9.068;2023-12-20T10:39:48;5.88;;;1.60;;
4873;SDS011;2451;49.970;9.068;2023-12-20T10:42:17;5.47;;;1.70;;
4873;SDS011;2451;49.970;9.068;2023-12-20T10:44:45;5.30;;;2.58;;
4873;SDS011;2451;49.970;9.068;2023-12-20T10:47:11;6.07;;;1.50;;
4873;SDS011;2451;49.970;9.068;2023-12-20T10:49:38;4.90;;;1.63;;
4873;SDS011;2451;49.970;9.068;2023-12-20T10:52:05;5.65;;;1.65;;
4873;SDS011;2451;49.970;9.068;2023-12-20T10:54:32;5.05;;;1.67;;
4873;SDS011;2451;49.970;9.068;2023-12-20T10:56:58;4.28;;;1.70;;
4873;SDS011;2451;49.970;9.068;2023-12-20T10:59:25;5.32;;;1.80;;
4873;SDS011;2451;49.970;9.068;2023-12-20T11:05:10;3.90;;;1.40;;
4873;SDS011;2451;49.970;9.068;2023-12-20T11:10:13;5.63;;;1.50;;
4873;SDS011;2451;49.970;9.068;2023-12-20T11:13:44;4.25;;;1.45;;
4873;SDS011;2451;49.970;9.068;2023-12-20T11:15:42;3.30;;;1.42;;
4873;SDS011;2451;49.970;9.068;2023-12-20T11:18:08;5.18;;;2.08;;
4873;SDS011;2451;49.970;9.068;2023-12-20T11:20:37;2.72;;;1.30;;
4873;SDS011;2451;49.970;9.068;2023-12-20T11:23:04;5.40;;;1.58;;
4873;SDS011;2451;49.970;9.068;2023-12-20T11:25:34;6.30;;;1.63;;
4873;SDS011;2451;49.970;9.068;2023-12-20T11:28:16;3.65;;;1.35;;
4873;SDS011;2451;49.970;9.068;2023-12-20T11:30:52;3.65;;;1.85;;
4873;SDS011;2451;49.970;9.068;2023-12-20T11:33:23;4.78;;;1.50;;
4873;SDS011;2451;49.970;9.068;2023-12-20T11:35:50;3.90;;;1.63;;
4873;SDS011;2451;49.970;9.068;2023-12-20T11:38:16;4.30;;;1.45;;
4873;SDS011;2451;49.970;9.068;2023-12-20T11:40:42;3.92;;;1.50;;
4873;SDS011;2451;49.970;9.068;2023-12-20T11:43:08;3.05;;;1.33;;
4873;SDS011;2451;49.970;9.068;2023-12-20T11:45:34;4.28;;;1.48;;
4873;SDS011;2451;49.970;9.068;2023-12-20T11:48:00;6.68;;;1.65;;
4873;SDS011;2451;49.970;9.068;2023-12-20T11:50:27;3.45;;;1.45;;
4873;SDS011;2451;49.970;9.068;2023-12-20T11:52:54;8.70;;;1.63;;
4873;SDS011;2451;49.970;9.068;2023-12-20T11:55:21;4.25;;;1.40;;
4873;SDS011;2451;49.970;9.068;2023-12-20T11:57:47;4.47;;;1.45;;
4873;SDS011;2451;49.970;9.068;2023-12-20T12:00:13;3.20;;;1.25;;
4873;SDS011;2451;49.970;9.068;2023-12-20T12:02:39;5.50;;;1.45;;
4873;SDS011;2451;49.970;9.068;2023-12-20T12:05:05;6.55;;;1.77;;
4873;SDS011;2451;49.970;9.068;2023-12-20T12:07:31;4.97;;;1.17;;
4873;SDS011;2451;49.970;9.068;2023-12-20T12:09:57;3.78;;;1.40;;
4873;SDS011;2451;49.970;9.068;2023-12-20T12:12:23;3.83;;;1.33;;
4873;SDS011;2451;49.970;9.068;2023-12-20T12:14:50;6.25;;;1.73;;
4873;SDS011;2451;49.970;9.068;2023-12-20T12:17:16;5.32;;;1.90;;
4873;SDS011;2451;49.970;9.068;2023-12-20T12:19:41;5.13;;;1.83;;
4873;SDS011;2451;49.970;9.068;2023-12-20T12:22:08;4.85;;;1.80;;
4873;SDS011;2451;49.970;9.068;2023-12-20T12:24:38;5.85;;;1.65;;
4873;SDS011;2451;49.970;9.068;2023-12-20T12:27:07;3.88;;;1.45;;
4873;SDS011;2451;49.970;9.068;2023-12-20T12:29:34;7.15;;;1.70;;
4873;SDS011;2451;49.970;9.068;2023-12-20T12:32:00;3.50;;;1.30;;
4873;SDS011;2451;49.970;9.068;2023-12-20T12:34:29;3.80;;;1.35;;
4873;SDS011;2451;49.970;9.068;2023-12-20T12:36:54;6.47;;;2.20;;
4873;SDS011;2451;49.970;9.068;2023-12-20T12:39:21;4.40;;;1.98;;
4873;SDS011;2451;49.970;9.068;2023-12-20T12:41:50;7.25;;;1.73;;
4873;SDS011;2451;49.970;9.068;2023-12-20T12:44:16;3.35;;;1.70;;
4873;SDS011;2451;49.970;9.068;2023-12-20T12:46:42;4.32;;;2.00;;
4873;SDS011;2451;49.970;9.068;2023-12-20T12:49:09;4.32;;;1.60;;
4873;SDS011;2451;49.970;9.068;2023-12-20T12:51:34;8.35;;;2.60;;
4873;SDS011;2451;49.970;9.068;2023-12-20T12:54:00;5.82;;;2.25;;
4873;SDS011;2451;49.970;9.068;2023-12-20T12:56:25;7.60;;;2.10;;
4873;SDS011;2451;49.970;9.068;2023-12-20T12:58:51;4.20;;;1.50;;
4873;SDS011;2451;49.970;9.068;2023-12-20T13:01:16;5.25;;;2.13;;
4873;SDS011;2451;49.970;9.068;2023-12-20T13:03:42;6.00;;;1.73;;
4873;SDS011;2451;49.970;9.068;2023-12-20T13:06:08;5.35;;;1.45;;
4873;SDS011;2451;49.970;9.068;2023-12-20T13:08:34;4.13;;;2.17;;
4873;SDS011;2451;49.970;9.068;2023-12-20T13:10:59;4.20;;;1.70;;
4873;SDS011;2451;49.970;9.068;2023-12-20T13:13:26;4.60;;;1.80;;
4873;SDS011;2451;49.970;9.068;2023-12-20T13:15:52;6.55;;;2.15;;
4873;SDS011;2451;49.970;9.068;2023-12-20T13:18:20;4.60;;;1.65;;
4873;SDS011;2451;49.970;9.068;2023-12-20T13:20:46;5.45;;;1.25;;
4873;SDS011;2451;49.970;9.068;2023-12-20T13:23:11;5.93;;;1.42;;
4873;SDS011;2451;49.970;9.068;2023-12-20T13:25:37;9.07;;;1.83;;
4873;SDS011;2451;49.970;9.068;2023-12-20T13:28:02;6.18;;;2.35;;
4873;SDS011;2451;49.970;9.068;2023-12-20T13:30:28;5.47;;;2.10;;
4873;SDS011;2451;49.970;9.068;2023-12-20T13:32:54;4.88;;;2.22;;
4873;SDS011;2451;49.970;9.068;2023-12-20T13:35:20;6.25;;;1.60;;
4873;SDS011;2451;49.970;9.068;2023-12-20T13:37:46;4.60;;;1.80;;
4873;SDS011;2451;49.970;9.068;2023-12-20T13:40:11;6.43;;;1.75;;
4873;SDS011;2451;49.970;9.068;2023-12-20T13:42:37;5.55;;;1.98;;
4873;SDS011;2451;49.970;9.068;2023-12-20T13:45:06;6.83;;;2.00;;
4873;SDS011;2451;49.970;9.068;2023-12-20T13:47:32;3.20;;;1.75;;
4873;SDS011;2451;49.970;9.068;2023-12-20T13:49:58;5.57;;;1.92;;
4873;SDS011;2451;49.970;9.068;2023-12-20T13:52:23;5.65;;;1.88;;
4873;SDS011;2451;49.970;9.068;2023-12-20T13:54:49;7.00;;;1.80;;
4873;SDS011;2451;49.970;9.068;2023-12-20T13:57:15;6.78;;;2.15;;
4873;SDS011;2451;49.970;9.068;2023-12-20T13:59:40;5.85;;;1.90;;
4873;SDS011;2451;49.970;9.068;2023-12-20T14:02:06;4.78;;;1.90;;
4873;SDS011;2451;49.970;9.068;2023-12-20T14:04:31;5.88;;;2.03;;
4873;SDS011;2451;49.970;9.068;2023-12-20T14:06:57;5.60;;;2.00;;
4873;SDS011;2451;49.970;9.068;2023-12-20T14:09:23;6.22;;;1.88;;
4873;SDS011;2451;49.970;9.068;2023-12-20T14:11:48;3.95;;;1.92;;
4873;SDS011;2451;49.970;9.068;2023-12-20T14:14:14;4.07;;;1.90;;
4873;SDS011;2451;49.970;9.068;2023-12-20T14:16:39;4.43;;;1.98;;
4873;SDS011;2451;49.970;9.068;2023-12-20T14:19:05;6.80;;;2.03;;
4873;SDS011;2451;49.970;9.068;2023-12-20T14:21:33;4.82;;;1.77;;
4873;SDS011;2451;49.970;9.068;2023-12-20T14:23:58;5.15;;;2.03;;
4873;SDS011;2451;49.970;9.068;2023-12-20T14:26:24;5.80;;;2.33;;
4873;SDS011;2451;49.970;9.068;2023-12-20T14:28:49;3.45;;;1.65;;
4873;SDS011;2451;49.970;9.068;2023-12-20T14:31:15;5.95;;;2.35;;
4873;SDS011;2451;49.970;9.068;2023-12-20T14:33:40;5.25;;;2.05;;
4873;SDS011;2451;49.970;9.068;2023-12-20T14:36:07;8.30;;;2.45;;
4873;SDS011;2451;49.970;9.068;2023-12-20T14:38:33;3.05;;;1.77;;
4873;SDS011;2451;49.970;9.068;2023-12-20T14:40:58;3.92;;;1.92;;
4873;SDS011;2451;49.970;9.068;2023-12-20T14:43:25;4.28;;;2.35;;
4873;SDS011;2451;49.970;9.068;2023-12-20T14:45:54;5.50;;;2.35;;
4873;SDS011;2451;49.970;9.068;2023-12-20T14:48:20;3.30;;;1.98;;
4873;SDS011;2451;49.970;9.068;2023-12-20T14:50:46;5.68;;;1.92;;
4873;SDS011;2451;49.970;9.068;2023-12-20T14:53:13;3.33;;;1.70;;
4873;SDS011;2451;49.970;9.068;2023-12-20T14:55:41;4.03;;;1.98;;
4873;SDS011;2451;49.970;9.068;2023-12-20T14:58:07;6.43;;;1.90;;
4873;SDS011;2451;49.970;9.068;2023-12-20T15:00:32;5.03;;;1.60;;
4873;SDS011;2451;49.970;9.068;2023-12-20T15:02:58;2.47;;;1.48;;
4873;SDS011;2451;49.970;9.068;2023-12-20T15:05:24;2.83;;;1.50;;
4873;SDS011;2451;49.970;9.068;2023-12-20T15:07:50;4.47;;;1.65;;
4873;SDS011;2451;49.970;9.068;2023-12-20T15:10:15;6.10;;;1.98;;
4873;SDS011;2451;49.970;9.068;2023-12-20T15:12:42;6.43;;;1.90;;
4873;SDS011;2451;49.970;9.068;2023-12-20T15:15:08;6.03;;;1.60;;
4873;SDS011;2451;49.970;9.068;2023-12-20T15:17:35;5.57;;;1.88;;
4873;SDS011;2451;49.970;9.068;2023-12-20T15:20:01;2.83;;;1.58;;